Time;durP1;ratioP1;P1;durP2;ratioP2;P2;SDS_P1;SDS_P2;PMS_P1;PMS_P2;Temp;Humidity;BMP_temperature;BMP_pressure;BME280_temperature;BME280_humidity;BME280_pressure;Samples;Min_cycle;Max_cycle;Signal;HPM_P1;HPM_P2
2022/11/25 00:01:04;;;;;;;12.80;7.55;;;;;;;5.40;75.70;99827.09;1087342;54;20049;-78
2022/11/25 00:02:08;;;;;;;12.80;8.05;;;;;;;5.37;75.43;99830.00;1087471;54;20036;-79
2022/11/25 00:03:10;;;;;;;12.10;7.07;;;;;;;5.37;75.58;99822.03;1087422;54;20060;-78
2022/11/25 00:04:14;;;;;;;13.00;7.75;;;;;;;5.37;75.45;99824.69;1087985;46;20042;-79
2022/11/25 00:05:15;;;;;;;11.35;7.32;;;;;;;5.37;75.78;99827.34;1087516;54;20042;-78
2022/11/25 00:06:22;;;;;;;11.68;7.57;;;;;;;5.33;75.77;99825.06;1087430;54;20030;-78
2022/11/25 00:07:23;;;;;;;12.75;7.72;;;;;;;5.33;75.54;99828.53;1087339;54;20131;-78
2022/11/25 00:08:27;;;;;;;16.70;8.82;;;;;;;5.30;75.69;99824.31;1087466;54;20031;-79
2022/11/25 00:09:29;;;;;;;13.27;7.47;;;;;;;5.30;75.93;99821.66;1087273;54;20807;-79
2022/11/25 00:10:34;;;;;;;12.77;7.55;;;;;;;5.33;75.64;99822.41;1087065;54;20034;-78
2022/11/25 00:11:37;;;;;;;13.60;7.72;;;;;;;5.28;75.61;99820.94;1086968;54;20068;-78
2022/11/25 00:12:42;;;;;;;12.80;7.60;;;;;;;5.27;75.62;99816.59;1087192;46;20078;-77
2022/11/25 00:13:44;;;;;;;14.30;7.68;;;;;;;5.28;76.03;99818.28;1086809;54;20125;-79
2022/11/25 00:14:51;;;;;;;14.73;8.95;;;;;;;5.29;75.75;99816.50;1086947;47;20042;-79
2022/11/25 00:15:53;;;;;;;12.20;7.38;;;;;;;5.25;75.98;99820.31;1086814;54;20077;-79
2022/11/25 00:16:57;;;;;;;13.13;7.15;;;;;;;5.28;75.96;99820.09;1086805;54;20960;-79
2022/11/25 00:17:58;;;;;;;12.80;8.25;;;;;;;5.26;75.84;99816.72;1086888;54;20127;-78
2022/11/25 00:19:02;;;;;;;12.82;7.53;;;;;;;5.26;75.91;99816.72;1086562;54;20697;-79
2022/11/25 00:20:05;;;;;;;16.05;8.18;;;;;;;5.26;76.04;99816.72;1087178;54;20046;-78
2022/11/25 00:21:12;;;;;;;12.00;7.45;;;;;;;5.30;76.03;99823.44;1091369;39;20836;-79
2022/11/25 00:22:16;;;;;;;13.70;7.63;;;;;;;5.25;75.80;99820.31;1087045;54;20042;-77
2022/11/25 00:23:18;;;;;;;13.02;7.55;;;;;;;5.26;76.10;99828.13;1087612;46;21164;-78
2022/11/25 00:24:22;;;;;;;10.93;6.78;;;;;;;5.26;76.04;99811.41;1087135;54;20030;-78
2022/11/25 00:25:23;;;;;;;11.50;7.43;;;;;;;5.24;76.06;99818.63;1087285;54;20110;-78
2022/11/25 00:26:31;;;;;;;18.42;8.32;;;;;;;5.22;76.21;99818.75;1087133;54;20042;-78
2022/11/25 00:27:32;;;;;;;13.15;8.05;;;;;;;5.20;75.94;99817.16;1087144;54;20049;-78
2022/11/25 00:28:36;;;;;;;20.10;9.45;;;;;;;5.13;76.28;99819.44;1087182;54;20039;-77
2022/11/25 00:29:38;;;;;;;16.10;9.48;;;;;;;5.05;76.38;99820.00;1087035;54;20450;-79
2022/11/25 00:30:45;;;;;;;18.27;9.25;;;;;;;5.04;76.96;99820.97;1087122;54;20031;-79
2022/11/25 00:31:46;;;;;;;14.27;8.15;;;;;;;5.02;76.83;99820.22;1087269;54;20054;-78
2022/11/25 00:32:50;;;;;;;16.20;8.88;;;;;;;5.02;76.77;99819.41;1087193;54;20963;-78
2022/11/25 00:33:52;;;;;;;14.55;9.25;;;;;;;5.00;76.91;99816.88;1087341;54;20034;-77
2022/11/25 00:34:56;;;;;;;16.70;8.45;;;;;;;4.99;76.91;99816.00;1087283;54;20070;-79
2022/11/25 00:35:59;;;;;;;15.15;8.98;;;;;;;4.96;76.94;99818.03;1087056;54;20675;-78
2022/11/25 00:37:04;;;;;;;13.48;7.47;;;;;;;4.99;76.83;99820.47;1087356;54;20031;-78
2022/11/25 00:38:05;;;;;;;17.23;8.63;;;;;;;4.99;76.98;99825.78;1087542;54;20098;-78
2022/11/25 00:39:13;;;;;;;13.48;8.32;;;;;;;5.00;76.98;99833.59;1087762;54;20030;-78
2022/11/25 00:40:14;;;;;;;14.25;7.40;;;;;;;5.03;77.06;99829.03;1087721;54;20050;-77
2022/11/25 00:45:09;;;;;;;15.02;6.85;;;;;;;5.05;76.63;99824.47;1087421;54;20034;-78
2022/11/25 00:46:13;;;;;;;12.75;7.60;;;;;;;5.05;76.56;99830.59;1087622;54;20046;-79
2022/11/25 00:47:23;;;;;;;11.60;7.30;;;;;;;5.05;76.60;99835.91;1087734;54;20054;-78
2022/11/25 00:48:25;;;;;;;11.93;6.88;;;;;;;5.00;76.64;99830.94;1088554;46;20074;-79
2022/11/25 00:49:29;;;;;;;13.35;7.63;;;;;;;5.00;76.54;99824.81;1087946;46;20031;-79
2022/11/25 00:50:33;;;;;;;13.85;6.70;;;;;;;5.04;76.52;99828.91;1087646;54;20061;-79
2022/11/25 00:51:34;;;;;;;13.02;6.43;;;;;;;5.05;76.52;99832.44;1087579;54;20069;-78
2022/11/25 00:52:39;;;;;;;11.30;7.10;;;;;;;5.05;76.25;99832.44;1087459;54;20038;-78
2022/11/25 00:53:40;;;;;;;12.13;7.20;;;;;;;5.07;76.68;99833.13;1088504;39;20348;-79
2022/11/25 00:54:46;;;;;;;11.65;6.70;;;;;;;5.08;76.41;99829.53;1087498;54;20048;-78
2022/11/25 00:57:06;;;;;;;12.48;6.72;;;;;;;5.01;76.24;99823.84;1087446;54;20031;-78
2022/11/25 00:58:08;;;;;;;13.57;7.88;;;;;;;5.00;76.29;99830.94;1087292;54;20035;-78
2022/11/25 00:59:12;;;;;;;15.77;7.95;;;;;;;4.95;76.56;99827.81;1087379;54;20030;-78
2022/11/25 01:00:14;;;;;;;13.10;7.72;;;;;;;4.85;76.72;99829.44;1087310;54;20035;-79
2022/11/25 01:01:21;;;;;;;12.88;7.15;;;;;;;4.83;76.97;99818.13;1087393;54;20042;-78
2022/11/25 01:02:25;;;;;;;14.50;6.80;;;;;;;4.83;76.94;99824.25;1087388;54;20086;-78
2022/11/25 01:03:27;;;;;;;13.70;7.75;;;;;;;4.76;77.07;99825.66;1087470;54;20050;-77
2022/11/25 01:04:31;;;;;;;16.27;8.05;;;;;;;4.76;76.90;99827.47;1087365;54;20034;-77
2022/11/25 01:05:32;;;;;;;14.35;7.97;;;;;;;4.65;77.55;99828.25;1087496;54;20031;-78
2022/11/25 01:06:38;;;;;;;16.92;8.25;;;;;;;4.66;77.38;99829.94;1087293;54;20045;-78
2022/11/25 01:07:39;;;;;;;16.63;8.70;;;;;;;4.61;77.49;99824.16;1087214;54;20038;-78
2022/11/25 01:08:43;;;;;;;14.15;7.57;;;;;;;4.55;77.76;99829.88;1087367;54;20030;-77
2022/11/25 01:09:45;;;;;;;16.23;8.02;;;;;;;4.54;77.90;99834.34;1088759;39;20633;-77
2022/11/25 01:10:49;;;;;;;13.57;8.18;;;;;;;4.46;77.84;99829.59;1087422;54;20037;-77
2022/11/25 01:11:53;;;;;;;16.70;8.45;;;;;;;4.43;78.32;99834.25;1087329;54;20700;-77
2022/11/25 01:12:55;;;;;;;13.68;7.85;;;;;;;4.44;78.34;99828.84;1087395;54;20050;-76
2022/11/25 01:13:59;;;;;;;17.42;8.75;;;;;;;4.40;78.42;99829.19;1087438;54;20031;-76
2022/11/25 01:15:00;;;;;;;14.68;8.68;;;;;;;4.46;78.36;99829.59;1087235;54;21528;-77
2022/11/25 01:16:05;;;;;;;16.15;8.00;;;;;;;4.52;78.08;99828.31;1087330;54;20045;-77
2022/11/25 01:17:12;;;;;;;13.40;7.68;;;;;;;4.55;77.98;99822.78;1087385;54;20046;-76
2022/11/25 01:18:13;;;;;;;15.50;7.10;;;;;;;4.58;77.87;99830.50;1088897;39;21031;-77
2022/11/25 01:19:19;;;;;;;14.23;7.70;;;;;;;4.56;77.86;99823.63;1087327;54;20042;-76
2022/11/25 01:20:20;;;;;;;12.88;6.78;;;;;;;4.57;77.56;99815.59;1087323;54;20030;-77
2022/11/25 01:21:26;;;;;;;10.85;6.90;;;;;;;4.64;77.51;99821.25;1088174;39;20550;-78
2022/11/25 01:22:28;;;;;;;12.60;6.78;;;;;;;4.66;77.42;99825.50;1087444;54;20100;-77
2022/11/25 01:23:32;;;;;;;13.18;6.57;;;;;;;4.58;77.11;99825.19;1087417;54;20038;-77
2022/11/25 01:24:36;;;;;;;12.27;7.28;;;;;;;4.65;77.42;99822.94;1087328;54;20034;-77
2022/11/25 01:25:39;;;;;;;20.88;12.77;;;;;;;4.62;77.31;99833.78;1087406;54;20061;-76
2022/11/25 01:26:43;;;;;;;19.92;13.85;;;;;;;4.63;77.34;99827.53;1087195;54;20026;-76
2022/11/25 01:27:45;;;;;;;19.05;12.52;;;;;;;4.66;77.19;99832.59;1087341;54;20038;-76
2022/11/25 01:28:50;;;;;;;22.50;14.95;;;;;;;4.65;77.01;99837.06;1087300;54;20061;-76
2022/11/25 01:29:51;;;;;;;16.25;10.85;;;;;;;4.64;77.37;99840.66;1087943;46;20034;-77
2022/11/25 01:31:01;;;;;;;21.00;10.13;;;;;;;4.60;76.96;99833.88;1087361;54;20030;-76
2022/11/25 01:32:06;;;;;;;14.98;9.18;;;;;;;4.50;77.04;99836.38;1087304;54;20046;-76
2022/11/25 01:33:10;;;;;;;14.02;8.40;;;;;;;4.52;77.56;99837.09;1087444;54;20042;-77
2022/11/25 01:34:15;;;;;;;16.77;9.05;;;;;;;4.50;77.45;99835.50;1087439;54;20040;-76
2022/11/25 01:35:17;;;;;;;13.65;7.53;;;;;;;4.53;77.42;99836.13;1087329;54;20061;-76
2022/11/25 01:36:21;;;;;;;13.95;7.90;;;;;;;4.56;77.40;99839.50;1087273;54;20818;-76
2022/11/25 01:37:22;;;;;;;12.55;7.07;;;;;;;4.61;77.36;99837.38;1087347;54;20046;-77
2022/11/25 01:38:26;;;;;;;12.93;6.72;;;;;;;4.61;77.05;99842.69;1087856;39;20582;-76
2022/11/25 01:39:31;;;;;;;11.00;6.20;;;;;;;4.61;77.16;99843.50;1087385;47;20077;-76
2022/11/25 01:40:35;;;;;;;11.95;7.03;;;;;;;4.59;77.02;99837.47;1087445;54;20054;-76
2022/11/25 01:41:39;;;;;;;14.43;7.85;;;;;;;4.46;77.34;99842.81;1087358;54;20026;-77
2022/11/25 01:42:42;;;;;;;11.82;6.55;;;;;;;4.51;77.43;99840.69;1087431;54;20835;-77
2022/11/25 01:44:01;;;;;;;12.20;7.18;;;;;;;4.48;77.39;99838.25;1087540;54;20042;-76
2022/11/25 01:45:41;;;;;;;11.05;6.55;;;;;;;4.48;77.57;99846.22;1087420;54;20065;-78
2022/11/25 01:46:59;;;;;;;13.40;6.75;;;;;;;4.39;77.83;99848.69;1086989;54;20109;-76
2022/11/25 01:48:12;;;;;;;13.90;7.13;;;;;;;4.37;77.94;99840.84;1087370;46;20680;-77
2022/11/25 01:49:24;;;;;;;15.10;6.75;;;;;;;4.43;77.71;99847.50;1087518;54;20030;-78
2022/11/25 01:50:30;;;;;;;11.60;6.32;;;;;;;4.48;77.54;99851.50;1087509;54;20034;-77
2022/11/25 01:51:39;;;;;;;11.25;6.50;;;;;;;4.44;77.29;99842.06;1087559;54;20038;-77
2022/11/25 01:52:47;;;;;;;10.63;6.47;;;;;;;4.40;77.37;99843.28;1087541;54;20049;-77
2022/11/25 01:53:50;;;;;;;10.35;6.10;;;;;;;4.35;77.75;99842.75;1087640;54;20034;-78
2022/11/25 01:55:00;;;;;;;12.75;7.07;;;;;;;4.36;77.78;99847.94;1088942;39;20787;-79
2022/11/25 01:56:03;;;;;;;12.60;6.15;;;;;;;4.33;77.51;99849.97;1087424;54;20075;-76
2022/11/25 01:57:10;;;;;;;14.77;7.50;;;;;;;4.30;77.65;99839.59;1087372;54;20042;-77
2022/11/25 01:58:17;;;;;;;11.82;6.25;;;;;;;4.30;77.85;99834.28;1086978;54;20038;-77
2022/11/25 01:59:21;;;;;;;14.23;7.18;;;;;;;4.24;77.73;99846.16;1087580;31;20839;-77
2022/11/25 02:00:23;;;;;;;14.77;6.43;;;;;;;4.19;78.03;99846.50;1086839;54;20050;-76
2022/11/25 02:01:28;;;;;;;12.38;7.00;;;;;;;4.17;78.22;99844.91;1086911;54;20151;-77
2022/11/25 02:02:30;;;;;;;13.93;7.05;;;;;;;4.14;78.13;99839.81;1086899;54;20065;-77
2022/11/25 02:03:38;;;;;;;9.82;6.35;;;;;;;4.16;78.16;99854.63;1086908;54;20026;-77
2022/11/25 02:04:45;;;;;;;10.93;6.30;;;;;;;4.12;78.18;99853.19;1087320;31;20623;-77
2022/11/25 02:05:55;;;;;;;11.82;5.68;;;;;;;4.18;78.19;99857.19;1086823;54;20049;-77
2022/11/25 02:07:02;;;;;;;11.68;5.75;;;;;;;4.21;77.93;99852.53;1086915;54;20064;-77
2022/11/25 02:08:07;;;;;;;12.73;6.70;;;;;;;4.22;77.83;99853.34;1086950;54;20034;-77
2022/11/25 02:09:09;;;;;;;11.13;5.88;;;;;;;4.20;78.14;99847.34;1087476;47;20069;-77
2022/11/25 02:10:18;;;;;;;11.77;5.70;;;;;;;4.27;78.03;99845.94;1086890;54;20026;-77
2022/11/25 02:11:22;;;;;;;10.50;5.93;;;;;;;4.28;77.73;99846.78;1086908;54;20042;-77
2022/11/25 02:12:27;;;;;;;10.82;6.00;;;;;;;4.33;77.67;99857.91;1086902;54;20061;-77
2022/11/25 02:13:28;;;;;;;13.95;5.78;;;;;;;4.34;77.53;99852.50;1086955;54;20133;-77
2022/11/25 02:14:32;;;;;;;9.88;5.55;;;;;;;4.35;77.41;99850.69;1086769;54;20127;-77
2022/11/25 02:15:34;;;;;;;8.82;5.45;;;;;;;4.39;77.27;99859.28;1087104;47;20034;-77
2022/11/25 02:16:38;;;;;;;9.55;5.63;;;;;;;4.40;77.13;99856.50;1086842;54;20031;-77
2022/11/25 02:17:41;;;;;;;11.77;6.22;;;;;;;4.36;77.19;99860.31;1087005;54;20069;-77
2022/11/25 02:18:45;;;;;;;10.25;5.85;;;;;;;4.40;77.23;99860.94;1086883;54;20026;-77
2022/11/25 02:19:57;;;;;;;9.50;5.63;;;;;;;4.43;77.23;99851.00;1087161;39;20687;-77
2022/11/25 02:21:02;;;;;;;9.25;5.30;;;;;;;4.39;77.28;99860.09;1086943;54;20111;-77
2022/11/25 02:22:09;;;;;;;10.73;5.85;;;;;;;4.40;77.24;99856.50;1086842;54;20034;-77
2022/11/25 02:23:24;;;;;;;10.77;5.57;;;;;;;4.38;77.33;99847.81;1086923;54;20041;-77
2022/11/25 02:24:32;;;;;;;13.80;6.25;;;;;;;4.24;77.30;99856.75;1086844;54;20065;-77
2022/11/25 02:25:40;;;;;;;11.52;6.30;;;;;;;4.19;77.86;99851.78;1086840;54;20033;-77
2022/11/25 02:26:42;;;;;;;10.77;5.80;;;;;;;4.16;77.62;99857.28;1087217;54;20038;-76
2022/11/25 02:27:50;;;;;;;11.75;6.30;;;;;;;4.07;77.84;99855.28;1087244;54;20030;-77
2022/11/25 02:28:52;;;;;;;13.15;6.55;;;;;;;3.99;78.15;99854.97;1087224;54;20046;-77
2022/11/25 02:29:56;;;;;;;13.32;6.95;;;;;;;3.86;78.54;99858.50;1087315;54;20031;-77
2022/11/25 02:31:01;;;;;;;12.32;7.03;;;;;;;3.81;78.98;99850.00;1087102;54;20698;-77
2022/11/25 02:32:03;;;;;;;12.00;6.70;;;;;;;3.79;78.96;99851.91;1087573;39;21056;-76
2022/11/25 02:33:07;;;;;;;11.23;6.43;;;;;;;3.79;78.94;99846.63;1087241;54;20030;-76
2022/11/25 02:34:09;;;;;;;14.77;7.07;;;;;;;3.77;78.92;99851.19;1087482;54;20828;-77
2022/11/25 02:35:32;;;;;;;11.82;6.32;;;;;;;3.78;79.07;99844.94;1087305;54;21012;-77
2022/11/25 02:36:33;;;;;;;11.20;5.82;;;;;;;3.88;78.94;99851.28;1090089;39;20823;-77
2022/11/25 02:37:38;;;;;;;11.50;6.20;;;;;;;3.90;78.53;99849.38;1087509;54;20038;-77
2022/11/25 02:38:43;;;;;;;9.20;5.90;;;;;;;3.97;78.36;99851.63;1087542;54;20046;-77
2022/11/25 02:39:49;;;;;;;10.95;5.95;;;;;;;3.91;78.32;99850.25;1087509;54;20050;-77
2022/11/25 02:40:57;;;;;;;11.13;5.65;;;;;;;3.94;78.34;99851.81;1087632;54;20035;-78
2022/11/25 02:42:02;;;;;;;13.98;6.22;;;;;;;3.99;78.32;99852.34;1087843;46;20059;-77
2022/11/25 02:43:03;;;;;;;10.50;5.60;;;;;;;4.04;77.93;99852.88;1087598;54;20061;-77
2022/11/25 02:44:08;;;;;;;9.40;4.90;;;;;;;4.10;77.86;99855.06;1087570;54;20646;-77
2022/11/25 02:45:13;;;;;;;10.35;4.63;;;;;;;4.08;77.63;99851.69;1087501;54;20046;-76
2022/11/25 02:46:19;;;;;;;10.60;6.28;;;;;;;4.06;77.82;99865.03;1087497;54;20038;-77
2022/11/25 02:47:20;;;;;;;10.52;5.53;;;;;;;4.09;77.70;99863.13;1087602;54;20061;-77
2022/11/25 02:48:25;;;;;;;9.82;5.07;;;;;;;4.10;77.45;99857.72;1087670;54;20033;-77
2022/11/25 02:49:27;;;;;;;10.07;4.90;;;;;;;4.11;77.51;99863.88;1087537;54;20695;-78
2022/11/25 02:50:31;;;;;;;8.48;5.22;;;;;;;4.12;77.34;99858.47;1087678;54;20030;-77
2022/11/25 02:51:33;;;;;;;9.95;5.28;;;;;;;4.13;77.36;99857.50;1088492;39;20770;-77
2022/11/25 02:52:37;;;;;;;10.95;6.18;;;;;;;4.11;77.16;99851.47;1087985;39;20564;-77
2022/11/25 02:53:39;;;;;;;9.82;5.32;;;;;;;4.13;77.43;99849.56;1086994;54;20792;-78
2022/11/25 02:54:43;;;;;;;10.50;4.97;;;;;;;4.14;77.29;99847.75;1087543;54;20027;-77
2022/11/25 02:55:45;;;;;;;8.52;4.97;;;;;;;4.12;77.36;99842.59;1087478;54;20046;-77
2022/11/25 02:56:51;;;;;;;9.80;5.30;;;;;;;4.03;77.31;99843.25;1087520;54;20030;-77
2022/11/25 02:57:53;;;;;;;9.05;5.63;;;;;;;4.04;77.58;99839.66;1087396;54;20069;-77
2022/11/25 02:58:57;;;;;;;14.07;5.88;;;;;;;4.02;77.50;99846.84;1087608;54;20042;-77
2022/11/25 02:59:58;;;;;;;9.60;5.55;;;;;;;3.93;77.89;99831.59;1087562;54;20332;-77
2022/11/25 03:01:02;;;;;;;10.65;5.63;;;;;;;3.96;77.72;99842.00;1087534;54;20045;-76
2022/11/25 03:02:04;;;;;;;11.13;6.32;;;;;;;3.87;77.93;99841.66;1089878;31;20571;-77
2022/11/25 03:03:08;;;;;;;9.88;6.07;;;;;;;3.83;78.25;99847.25;1087537;54;20054;-77
2022/11/25 03:04:10;;;;;;;10.98;6.25;;;;;;;3.86;77.94;99839.13;1087493;54;20038;-77
2022/11/25 03:05:14;;;;;;;10.43;6.32;;;;;;;3.81;78.13;99842.09;1087403;54;20045;-77
2022/11/25 03:06:16;;;;;;;9.23;5.50;;;;;;;3.82;78.24;99841.13;1087534;54;20093;-77
2022/11/25 03:07:20;;;;;;;7.10;4.43;;;;;;;3.89;78.08;99844.19;1087695;54;20061;-77
2022/11/25 03:08:26;;;;;;;8.02;4.85;;;;;;;3.94;78.01;99842.06;1087856;54;20065;-77
2022/11/25 03:09:28;;;;;;;9.32;5.45;;;;;;;3.94;77.79;99843.88;1088124;46;20086;-77
2022/11/25 03:10:38;;;;;;;9.02;5.20;;;;;;;3.96;77.69;99840.16;1088095;54;20061;-77
2022/11/25 03:13:01;;;;;;;10.50;5.50;;;;;;;3.86;77.82;99841.75;1087679;54;20034;-76
2022/11/25 03:14:03;;;;;;;10.27;5.50;;;;;;;3.83;78.06;99837.53;1087574;54;20777;-77
2022/11/25 03:15:08;;;;;;;8.85;5.20;;;;;;;3.84;78.17;99835.72;1087547;54;20030;-77
2022/11/25 03:16:10;;;;;;;12.18;6.25;;;;;;;3.80;78.04;99832.47;1087521;54;20077;-77
2022/11/25 03:17:14;;;;;;;8.90;5.22;;;;;;;3.78;78.44;99837.00;1088015;46;20631;-76
2022/11/25 03:18:15;;;;;;;12.55;5.82;;;;;;;3.77;78.53;99832.69;1087530;54;20038;-77
2022/11/25 03:19:19;;;;;;;9.60;5.68;;;;;;;3.82;78.25;99830.56;1087469;54;20120;-77
2022/11/25 03:20:21;;;;;;;9.13;5.18;;;;;;;3.81;78.09;99833.31;1087451;54;20046;-77
2022/11/25 03:21:25;;;;;;;11.27;5.95;;;;;;;3.79;78.42;99829.94;1087499;54;20030;-77
2022/11/25 03:22:27;;;;;;;11.57;5.70;;;;;;;3.82;78.11;99822.63;1087304;54;20073;-77
2022/11/25 03:23:31;;;;;;;10.57;5.50;;;;;;;3.81;78.10;99825.38;1087447;54;20054;-78
2022/11/25 03:24:32;;;;;;;8.88;5.45;;;;;;;3.85;78.05;99824.19;1087371;54;20069;-77
2022/11/25 03:25:37;;;;;;;9.27;4.78;;;;;;;3.82;78.11;99824.44;1087472;54;20046;-77
2022/11/25 03:26:38;;;;;;;8.90;5.03;;;;;;;3.77;78.00;99819.47;1087486;54;20671;-77
2022/11/25 03:27:43;;;;;;;10.75;5.55;;;;;;;3.72;78.37;99813.63;1087524;54;20053;-77
2022/11/25 03:28:47;;;;;;;9.20;5.28;;;;;;;3.65;78.47;99812.38;1088458;39;20948;-77
2022/11/25 03:29:51;;;;;;;9.75;4.95;;;;;;;3.64;78.64;99816.78;1087412;54;20031;-77
2022/11/25 03:30:53;;;;;;;8.18;4.88;;;;;;;3.71;78.39;99817.22;1087559;54;20773;-76
2022/11/25 03:31:57;;;;;;;8.77;5.50;;;;;;;3.68;78.52;99813.00;1087401;54;20030;-77
2022/11/25 03:33:01;;;;;;;8.45;5.32;;;;;;;3.67;78.51;99810.47;1087463;54;20065;-77
2022/11/25 03:34:02;;;;;;;7.03;4.35;;;;;;;3.66;78.49;99811.44;1087465;54;20082;-77
2022/11/25 03:35:08;;;;;;;9.90;4.97;;;;;;;3.71;78.33;99818.09;1087375;54;20046;-76
2022/11/25 03:36:09;;;;;;;9.82;4.90;;;;;;;3.78;78.14;99807.06;1087388;54;20042;-76
2022/11/25 03:37:13;;;;;;;7.22;4.40;;;;;;;3.85;78.06;99816.25;1087468;54;20031;-77
2022/11/25 03:38:18;;;;;;;11.68;4.65;;;;;;;3.88;77.92;99803.66;1087511;54;20090;-77
2022/11/25 03:39:19;;;;;;;8.90;4.93;;;;;;;3.84;78.00;99796.91;1087543;54;20061;-77
2022/11/25 03:40:23;;;;;;;9.55;5.13;;;;;;;3.81;78.02;99797.13;1087456;54;20030;-77
2022/11/25 03:41:25;;;;;;;9.32;4.88;;;;;;;3.87;77.96;99798.50;1087488;54;20098;-77
2022/11/25 03:42:29;;;;;;;7.47;4.82;;;;;;;3.87;77.85;99801.16;1087437;54;20034;-77
2022/11/25 03:43:34;;;;;;;7.38;4.38;;;;;;;3.89;77.69;99801.88;1090908;31;20596;-77
2022/11/25 03:44:38;;;;;;;6.93;3.83;;;;;;;3.88;77.66;99801.03;1087308;54;20035;-77
2022/11/25 03:45:42;;;;;;;8.13;4.20;;;;;;;3.93;77.87;99802.50;1087375;54;20086;-77
2022/11/25 03:46:43;;;;;;;6.65;3.92;;;;;;;3.95;77.82;99809.38;1087490;54;20046;-76
2022/11/25 03:47:48;;;;;;;6.32;3.83;;;;;;;3.99;77.52;99804.72;1087450;54;20038;-77
2022/11/25 03:48:49;;;;;;;6.85;4.25;;;;;;;3.96;77.50;99813.72;1087560;54;20042;-77
2022/11/25 03:49:53;;;;;;;7.30;4.35;;;;;;;3.95;77.38;99804.09;1087468;54;20749;-78
2022/11/25 03:50:55;;;;;;;7.78;4.55;;;;;;;3.99;77.74;99807.34;1088031;46;20676;-77
2022/11/25 03:52:00;;;;;;;8.55;4.93;;;;;;;3.98;77.48;99810.97;1087474;54;20021;-77
2022/11/25 03:53:01;;;;;;;9.25;4.55;;;;;;;3.97;77.58;99810.13;1087532;54;20065;-77
2022/11/25 03:54:05;;;;;;;9.95;4.72;;;;;;;3.99;77.72;99810.00;1088573;39;20407;-77
2022/11/25 03:55:08;;;;;;;11.15;4.93;;;;;;;3.97;77.50;99802.19;1087419;54;20115;-77
2022/11/25 03:56:12;;;;;;;10.65;5.30;;;;;;;3.90;77.64;99811.50;1087783;39;20710;-77
2022/11/25 03:57:13;;;;;;;9.95;5.15;;;;;;;3.84;78.01;99807.50;1087381;54;20065;-77
2022/11/25 03:58:17;;;;;;;9.85;5.35;;;;;;;3.86;78.13;99804.75;1087492;54;20042;-77
2022/11/25 03:59:19;;;;;;;9.68;4.93;;;;;;;3.85;78.17;99811.84;1088416;39;20729;-77
2022/11/25 04:00:26;;;;;;;12.52;5.65;;;;;;;3.87;78.04;99809.06;1087480;54;20030;-77
2022/11/25 04:01:27;;;;;;;10.02;4.78;;;;;;;3.85;77.97;99803.03;1087295;54;20037;-77
2022/11/25 04:02:32;;;;;;;8.50;4.80;;;;;;;3.88;78.06;99811.59;1087461;54;20031;-77
2022/11/25 04:03:33;;;;;;;8.38;4.32;;;;;;;3.88;78.12;99808.13;1087362;54;20039;-76
2022/11/25 04:04:37;;;;;;;8.93;4.40;;;;;;;3.93;78.19;99800.69;1088202;46;20034;-77
2022/11/25 04:05:39;;;;;;;10.30;4.57;;;;;;;3.98;78.05;99808.31;1087490;54;20075;-77
2022/11/25 04:06:43;;;;;;;8.68;5.13;;;;;;;3.96;78.13;99807.59;1087504;54;20034;-77
2022/11/25 04:07:44;;;;;;;8.95;5.03;;;;;;;3.98;78.21;99803.03;1087415;54;20050;-77
2022/11/25 04:08:49;;;;;;;8.75;4.72;;;;;;;3.99;78.33;99804.72;1087329;54;20038;-77
2022/11/25 04:09:50;;;;;;;8.00;4.63;;;;;;;4.04;78.05;99813.19;1087403;54;20107;-77
2022/11/25 04:10:54;;;;;;;13.18;5.93;;;;;;;3.92;78.35;99808.75;1087577;54;20014;-77
2022/11/25 04:13:12;;;;;;;12.35;5.80;;;;;;;3.78;78.68;99813.19;1090397;39;20297;-77
2022/11/25 04:14:14;;;;;;;13.10;6.00;;;;;;;3.83;78.94;99811.09;1087741;39;20665;-76
2022/11/25 04:15:19;;;;;;;8.55;5.15;;;;;;;3.85;78.44;99800.41;1087443;54;20026;-77
2022/11/25 04:16:25;;;;;;;11.43;5.30;;;;;;;3.82;78.71;99803.28;1087483;54;20042;-76
2022/11/25 04:17:29;;;;;;;10.77;5.20;;;;;;;3.84;78.54;99815.44;1087319;54;20042;-77
2022/11/25 04:18:31;;;;;;;9.70;4.78;;;;;;;3.84;78.62;99809.28;1087606;54;20046;-77
2022/11/25 04:19:35;;;;;;;9.95;5.05;;;;;;;3.84;78.51;99815.44;1087617;54;20078;-77
2022/11/25 04:20:37;;;;;;;9.90;5.20;;;;;;;3.85;78.40;99814.47;1087776;54;20106;-77
2022/11/25 04:21:41;;;;;;;10.43;5.13;;;;;;;3.86;78.28;99805.59;1087623;54;20031;-78
2022/11/25 04:22:43;;;;;;;11.00;5.55;;;;;;;3.87;78.21;99809.06;1087590;54;20046;-77
2022/11/25 04:23:47;;;;;;;8.63;4.32;;;;;;;3.82;78.18;99813.84;1087642;54;20034;-76
2022/11/25 04:24:48;;;;;;;10.30;4.60;;;;;;;3.85;78.09;99814.47;1087656;54;20064;-77
2022/11/25 04:25:52;;;;;;;8.73;4.50;;;;;;;3.87;78.24;99812.56;1087616;54;20027;-77
2022/11/25 04:26:54;;;;;;;9.32;4.63;;;;;;;3.84;78.28;99815.44;1088047;46;20057;-77
2022/11/25 04:27:58;;;;;;;8.10;4.30;;;;;;;3.86;78.35;99810.88;1087684;54;20042;-77
2022/11/25 04:29:00;;;;;;;9.43;4.43;;;;;;;3.90;77.88;99811.50;1087706;54;20038;-77
2022/11/25 04:30:04;;;;;;;7.53;4.22;;;;;;;3.87;77.98;99814.38;1087524;54;20031;-78
2022/11/25 04:31:08;;;;;;;8.00;4.45;;;;;;;3.84;78.00;99812.78;1087701;54;20041;-77
2022/11/25 04:32:15;;;;;;;7.20;4.18;;;;;;;3.83;77.91;99812.88;1087471;54;20837;-77
2022/11/25 04:33:16;;;;;;;7.63;4.30;;;;;;;3.81;77.95;99815.63;1087733;54;20042;-77
2022/11/25 04:34:20;;;;;;;8.30;4.78;;;;;;;3.85;78.03;99817.13;1087674;54;20045;-78
2022/11/25 04:35:22;;;;;;;8.50;4.53;;;;;;;3.87;78.15;99812.56;1087598;54;20098;-77
2022/11/25 04:36:26;;;;;;;6.93;4.20;;;;;;;3.88;77.75;99821.34;1087644;54;20034;-77
2022/11/25 04:37:27;;;;;;;8.52;3.97;;;;;;;3.82;78.21;99819.16;1087726;54;20102;-77
2022/11/25 04:38:31;;;;;;;7.57;4.03;;;;;;;3.89;78.04;99815.13;1087752;54;20039;-78
2022/11/25 04:39:33;;;;;;;9.68;5.63;;;;;;;3.93;77.91;99815.75;1088073;46;20062;-77
2022/11/25 04:40:37;;;;;;;9.82;4.00;;;;;;;3.83;77.77;99820.81;1087587;54;20037;-77
2022/11/25 04:41:38;;;;;;;7.20;4.78;;;;;;;3.84;78.16;99810.16;1087658;54;20093;-77
2022/11/25 04:42:42;;;;;;;9.60;4.50;;;;;;;3.85;78.08;99808.34;1087681;54;20038;-77
2022/11/25 04:43:44;;;;;;;7.43;4.30;;;;;;;3.80;78.32;99808.66;1087586;54;20675;-77
2022/11/25 04:44:48;;;;;;;9.18;4.10;;;;;;;3.75;78.75;99808.16;1087534;54;20037;-77
2022/11/25 04:45:50;;;;;;;9.27;5.80;;;;;;;3.77;78.35;99816.81;1089071;39;20798;-77
2022/11/25 04:46:54;;;;;;;6.47;4.00;;;;;;;3.79;78.39;99806.13;1087680;54;20663;-77
2022/11/25 04:47:59;;;;;;;11.20;5.53;;;;;;;3.63;78.64;99806.34;1089562;39;21000;-77
2022/11/25 04:49:03;;;;;;;11.73;6.28;;;;;;;3.54;79.24;99806.03;1087682;54;20030;-76
2022/11/25 04:50:08;;;;;;;10.05;5.10;;;;;;;3.51;79.52;99811.50;1088044;46;20107;-77
2022/11/25 04:51:12;;;;;;;10.95;4.93;;;;;;;3.54;79.43;99806.03;1089632;39;21120;-76
2022/11/25 04:52:14;;;;;;;9.00;4.70;;;;;;;3.61;79.46;99810.88;1087668;54;20034;-77
2022/11/25 04:53:18;;;;;;;9.07;4.50;;;;;;;3.69;79.18;99809.41;1087645;54;20026;-77
2022/11/25 04:54:19;;;;;;;9.63;4.53;;;;;;;3.71;78.74;99814.59;1088201;31;20761;-77
2022/11/25 04:55:23;;;;;;;7.65;4.32;;;;;;;3.77;78.85;99811.53;1089131;46;20026;-77
2022/11/25 04:56:25;;;;;;;8.07;4.60;;;;;;;3.82;78.45;99809.41;1087285;54;20045;-77
2022/11/25 04:57:29;;;;;;;9.82;4.63;;;;;;;3.89;78.43;99815.94;1087597;54;20035;-77
2022/11/25 04:59:47;;;;;;;5.85;3.67;;;;;;;3.92;78.36;99809.59;1087658;54;20040;-77
2022/11/25 05:00:51;;;;;;;7.05;3.72;;;;;;;3.95;78.18;99813.84;1087820;54;20030;-77
2022/11/25 05:01:52;;;;;;;9.18;4.20;;;;;;;3.89;77.87;99813.28;1087643;46;20050;-77
2022/11/25 05:02:56;;;;;;;9.02;4.20;;;;;;;3.91;78.21;99810.56;1087644;54;20042;-78
2022/11/25 05:04:01;;;;;;;6.20;4.03;;;;;;;3.95;77.93;99816.47;1087684;54;20061;-77
2022/11/25 05:05:07;;;;;;;6.20;3.80;;;;;;;3.96;77.81;99811.06;1087557;54;20038;-77
2022/11/25 05:06:09;;;;;;;9.73;4.65;;;;;;;3.94;78.06;99806.84;1087627;54;20064;-77
2022/11/25 05:07:14;;;;;;;7.78;4.03;;;;;;;3.93;78.02;99811.28;1087607;54;20053;-76
2022/11/25 05:08:15;;;;;;;10.30;4.13;;;;;;;3.94;78.11;99817.44;1087632;54;20065;-77
2022/11/25 05:09:20;;;;;;;9.55;4.53;;;;;;;3.94;78.07;99809.50;1087663;54;20030;-77
2022/11/25 05:10:21;;;;;;;7.18;4.07;;;;;;;3.90;78.11;99807.06;1087609;54;20090;-77
2022/11/25 05:11:25;;;;;;;9.23;4.72;;;;;;;3.92;78.43;99814.03;1087652;54;20038;-77
2022/11/25 05:12:28;;;;;;;9.07;4.53;;;;;;;3.89;77.93;99810.66;1087705;46;20138;-76